Paoli, Colorado
Current Conditions -  °F | °C
As of 5:35 PM on Wednesday 26 Nov 2014 (Local Time) from KHEQ Reporting Station
Scattered Clouds Scattered Clouds  
Wind Chill: 34°   Ceiling: Unl
Heat Index: 34°   Visibility: 10mi
Dew Point: 30°   Wind: 0mph
Humidity: 87%   Direction: NA
Pressure: 30.3"   Gusts: NA
Location:  40.61°N, 102.47°W
Report Text: KHEQ 270035Z AUTO 00000KT 10SM SCT050 SCT070 01/M01 A3030 RMK AO2
Loading
Personal Weather Stations






























Interactive Weather Map New forecast layout! Learn more

10-Day Weather Forecast

Advertisements
Track Severe Weather on mobile